sensor_id;sensor_type;location;lat;lon;timestamp;P1;durP1;ratioP1;P2;durP2;ratioP2
15567;SDS011;7885;42.596;23.044;2023-07-13T00:01:15;6.47;;;4.60;;
15567;SDS011;7885;42.596;23.044;2023-07-13T00:03:43;5.63;;;5.13;;
15567;SDS011;7885;42.596;23.044;2023-07-13T00:06:11;8.97;;;5.67;;
15567;SDS011;7885;42.596;23.044;2023-07-13T00:08:38;8.33;;;5.07;;
15567;SDS011;7885;42.596;23.044;2023-07-13T00:11:04;5.43;;;4.80;;
15567;SDS011;7885;42.596;23.044;2023-07-13T00:13:31;6.47;;;4.60;;
15567;SDS011;7885;42.596;23.044;2023-07-13T00:15:58;7.67;;;5.50;;
15567;SDS011;7885;42.596;23.044;2023-07-13T00:18:26;6.70;;;4.80;;
15567;SDS011;7885;42.596;23.044;2023-07-13T00:20:55;5.17;;;4.20;;
15567;SDS011;7885;42.596;23.044;2023-07-13T00:23:31;6.63;;;5.00;;
15567;SDS011;7885;42.596;23.044;2023-07-13T00:25:59;6.47;;;4.47;;
15567;SDS011;7885;42.596;23.044;2023-07-13T00:28:27;6.50;;;5.10;;
15567;SDS011;7885;42.596;23.044;2023-07-13T00:30:53;7.03;;;4.70;;
15567;SDS011;7885;42.596;23.044;2023-07-13T00:33:20;7.27;;;5.30;;
15567;SDS011;7885;42.596;23.044;2023-07-13T00:35:48;8.10;;;5.30;;
15567;SDS011;7885;42.596;23.044;2023-07-13T00:38:14;8.27;;;5.13;;
15567;SDS011;7885;42.596;23.044;2023-07-13T00:40:43;7.37;;;5.37;;
15567;SDS011;7885;42.596;23.044;2023-07-13T00:43:11;6.83;;;5.40;;
15567;SDS011;7885;42.596;23.044;2023-07-13T00:48:53;9.60;;;6.03;;
15567;SDS011;7885;42.596;23.044;2023-07-13T00:51:25;8.60;;;5.67;;
15567;SDS011;7885;42.596;23.044;2023-07-13T00:53:57;11.50;;;5.80;;
15567;SDS011;7885;42.596;23.044;2023-07-13T00:56:27;10.53;;;5.60;;
15567;SDS011;7885;42.596;23.044;2023-07-13T00:58:55;7.87;;;5.33;;
15567;SDS011;7885;42.596;23.044;2023-07-13T01:01:24;6.90;;;5.63;;
15567;SDS011;7885;42.596;23.044;2023-07-13T01:03:50;8.07;;;5.80;;
15567;SDS011;7885;42.596;23.044;2023-07-13T01:06:18;9.53;;;5.63;;
15567;SDS011;7885;42.596;23.044;2023-07-13T01:08:45;9.07;;;6.13;;
15567;SDS011;7885;42.596;23.044;2023-07-13T01:11:13;10.63;;;5.90;;
15567;SDS011;7885;42.596;23.044;2023-07-13T01:13:47;6.53;;;5.27;;
15567;SDS011;7885;42.596;23.044;2023-07-13T01:16:15;5.90;;;5.30;;
15567;SDS011;7885;42.596;23.044;2023-07-13T01:18:48;7.23;;;5.77;;
15567;SDS011;7885;42.596;23.044;2023-07-13T01:21:16;7.57;;;6.00;;
15567;SDS011;7885;42.596;23.044;2023-07-13T01:23:44;11.97;;;5.73;;
15567;SDS011;7885;42.596;23.044;2023-07-13T01:26:11;7.67;;;5.60;;
15567;SDS011;7885;42.596;23.044;2023-07-13T01:28:38;10.03;;;5.97;;
15567;SDS011;7885;42.596;23.044;2023-07-13T01:31:04;10.57;;;6.60;;
15567;SDS011;7885;42.596;23.044;2023-07-13T01:33:31;10.60;;;5.93;;
15567;SDS011;7885;42.596;23.044;2023-07-13T01:35:59;10.90;;;6.53;;
15567;SDS011;7885;42.596;23.044;2023-07-13T01:38:29;9.70;;;5.87;;
15567;SDS011;7885;42.596;23.044;2023-07-13T01:40:55;8.80;;;6.10;;
15567;SDS011;7885;42.596;23.044;2023-07-13T01:43:22;11.23;;;5.97;;
15567;SDS011;7885;42.596;23.044;2023-07-13T01:45:49;10.17;;;6.47;;
15567;SDS011;7885;42.596;23.044;2023-07-13T01:48:15;12.10;;;6.37;;
15567;SDS011;7885;42.596;23.044;2023-07-13T01:50:42;7.63;;;5.97;;
15567;SDS011;7885;42.596;23.044;2023-07-13T01:53:09;11.03;;;6.23;;
15567;SDS011;7885;42.596;23.044;2023-07-13T01:55:37;11.57;;;6.40;;
15567;SDS011;7885;42.596;23.044;2023-07-13T01:58:04;11.83;;;6.70;;
15567;SDS011;7885;42.596;23.044;2023-07-13T02:00:31;10.37;;;6.23;;
15567;SDS011;7885;42.596;23.044;2023-07-13T02:02:58;13.43;;;6.47;;
15567;SDS011;7885;42.596;23.044;2023-07-13T02:05:25;11.07;;;6.70;;
15567;SDS011;7885;42.596;23.044;2023-07-13T02:07:52;12.13;;;6.57;;
15567;SDS011;7885;42.596;23.044;2023-07-13T02:10:19;10.13;;;6.20;;
15567;SDS011;7885;42.596;23.044;2023-07-13T02:12:47;12.33;;;6.33;;
15567;SDS011;7885;42.596;23.044;2023-07-13T02:15:15;10.80;;;6.70;;
15567;SDS011;7885;42.596;23.044;2023-07-13T02:17:42;10.93;;;6.63;;
15567;SDS011;7885;42.596;23.044;2023-07-13T02:20:09;11.40;;;7.17;;
15567;SDS011;7885;42.596;23.044;2023-07-13T02:22:36;13.77;;;6.77;;
15567;SDS011;7885;42.596;23.044;2023-07-13T02:25:03;9.97;;;7.23;;
15567;SDS011;7885;42.596;23.044;2023-07-13T02:27:31;12.60;;;7.53;;
15567;SDS011;7885;42.596;23.044;2023-07-13T02:29:59;15.20;;;9.37;;
15567;SDS011;7885;42.596;23.044;2023-07-13T02:32:25;13.43;;;8.70;;
15567;SDS011;7885;42.596;23.044;2023-07-13T02:34:53;16.80;;;9.67;;
15567;SDS011;7885;42.596;23.044;2023-07-13T02:37:19;12.47;;;7.67;;
15567;SDS011;7885;42.596;23.044;2023-07-13T02:39:46;13.20;;;6.90;;
15567;SDS011;7885;42.596;23.044;2023-07-13T02:45:37;11.33;;;7.03;;
15567;SDS011;7885;42.596;23.044;2023-07-13T02:48:04;12.70;;;7.57;;
15567;SDS011;7885;42.596;23.044;2023-07-13T02:50:31;15.50;;;7.27;;
15567;SDS011;7885;42.596;23.044;2023-07-13T02:52:58;15.90;;;7.53;;
15567;SDS011;7885;42.596;23.044;2023-07-13T02:55:24;12.23;;;7.93;;
15567;SDS011;7885;42.596;23.044;2023-07-13T02:57:51;14.23;;;7.03;;
15567;SDS011;7885;42.596;23.044;2023-07-13T03:00:19;13.30;;;7.63;;
15567;SDS011;7885;42.596;23.044;2023-07-13T03:02:47;13.60;;;7.87;;
15567;SDS011;7885;42.596;23.044;2023-07-13T03:05:14;11.87;;;6.97;;
15567;SDS011;7885;42.596;23.044;2023-07-13T03:07:42;12.07;;;7.83;;
15567;SDS011;7885;42.596;23.044;2023-07-13T03:10:09;11.83;;;7.03;;
15567;SDS011;7885;42.596;23.044;2023-07-13T03:12:36;14.77;;;7.27;;
15567;SDS011;7885;42.596;23.044;2023-07-13T03:15:03;13.57;;;7.60;;
15567;SDS011;7885;42.596;23.044;2023-07-13T03:17:30;12.60;;;7.70;;
15567;SDS011;7885;42.596;23.044;2023-07-13T03:19:58;12.87;;;7.53;;
15567;SDS011;7885;42.596;23.044;2023-07-13T03:22:25;13.60;;;7.63;;
15567;SDS011;7885;42.596;23.044;2023-07-13T03:24:51;12.07;;;7.20;;
15567;SDS011;7885;42.596;23.044;2023-07-13T03:27:18;10.47;;;6.70;;
15567;SDS011;7885;42.596;23.044;2023-07-13T03:29:45;10.07;;;7.40;;
15567;SDS011;7885;42.596;23.044;2023-07-13T03:32:12;14.47;;;7.33;;
15567;SDS011;7885;42.596;23.044;2023-07-13T03:34:38;15.77;;;7.60;;
15567;SDS011;7885;42.596;23.044;2023-07-13T03:37:06;12.10;;;7.60;;
15567;SDS011;7885;42.596;23.044;2023-07-13T03:39:33;13.87;;;7.43;;
15567;SDS011;7885;42.596;23.044;2023-07-13T03:42:00;12.33;;;7.23;;
15567;SDS011;7885;42.596;23.044;2023-07-13T03:44:27;8.93;;;6.57;;
15567;SDS011;7885;42.596;23.044;2023-07-13T03:46:53;10.73;;;7.27;;
15567;SDS011;7885;42.596;23.044;2023-07-13T03:49:20;10.60;;;7.50;;
15567;SDS011;7885;42.596;23.044;2023-07-13T03:51:47;11.43;;;7.27;;
15567;SDS011;7885;42.596;23.044;2023-07-13T03:54:15;9.47;;;7.30;;
15567;SDS011;7885;42.596;23.044;2023-07-13T03:56:42;11.40;;;7.80;;
15567;SDS011;7885;42.596;23.044;2023-07-13T03:59:08;15.73;;;9.00;;
15567;SDS011;7885;42.596;23.044;2023-07-13T04:01:35;16.33;;;10.00;;
15567;SDS011;7885;42.596;23.044;2023-07-13T04:04:02;15.80;;;10.87;;
15567;SDS011;7885;42.596;23.044;2023-07-13T04:06:29;21.27;;;10.67;;
15567;SDS011;7885;42.596;23.044;2023-07-13T04:08:57;22.20;;;9.83;;
15567;SDS011;7885;42.596;23.044;2023-07-13T04:11:27;34.07;;;10.83;;
15567;SDS011;7885;42.596;23.044;2023-07-13T04:13:56;24.00;;;10.03;;
15567;SDS011;7885;42.596;23.044;2023-07-13T04:16:23;17.67;;;9.53;;
15567;SDS011;7885;42.596;23.044;2023-07-13T04:18:50;19.00;;;8.70;;
15567;SDS011;7885;42.596;23.044;2023-07-13T04:21:20;18.97;;;8.80;;
15567;SDS011;7885;42.596;23.044;2023-07-13T04:23:47;15.43;;;8.20;;
15567;SDS011;7885;42.596;23.044;2023-07-13T04:26:13;14.20;;;8.67;;
15567;SDS011;7885;42.596;23.044;2023-07-13T04:28:42;18.57;;;8.63;;
15567;SDS011;7885;42.596;23.044;2023-07-13T04:31:08;13.67;;;8.53;;
15567;SDS011;7885;42.596;23.044;2023-07-13T04:33:35;16.90;;;8.00;;
15567;SDS011;7885;42.596;23.044;2023-07-13T04:39:42;14.37;;;8.10;;
15567;SDS011;7885;42.596;23.044;2023-07-13T04:42:09;14.20;;;8.53;;
15567;SDS011;7885;42.596;23.044;2023-07-13T04:44:37;14.57;;;8.73;;
15567;SDS011;7885;42.596;23.044;2023-07-13T04:47:04;15.03;;;8.50;;
15567;SDS011;7885;42.596;23.044;2023-07-13T04:49:31;16.93;;;8.63;;
15567;SDS011;7885;42.596;23.044;2023-07-13T04:51:58;13.67;;;8.27;;
15567;SDS011;7885;42.596;23.044;2023-07-13T04:54:25;12.77;;;8.30;;
15567;SDS011;7885;42.596;23.044;2023-07-13T04:56:51;12.53;;;7.57;;
15567;SDS011;7885;42.596;23.044;2023-07-13T04:59:18;11.87;;;7.77;;
15567;SDS011;7885;42.596;23.044;2023-07-13T05:01:46;13.20;;;8.60;;
15567;SDS011;7885;42.596;23.044;2023-07-13T05:04:13;10.63;;;8.33;;
15567;SDS011;7885;42.596;23.044;2023-07-13T05:06:40;20.43;;;9.37;;
15567;SDS011;7885;42.596;23.044;2023-07-13T05:09:07;16.10;;;8.47;;
15567;SDS011;7885;42.596;23.044;2023-07-13T05:11:33;16.60;;;8.80;;
15567;SDS011;7885;42.596;23.044;2023-07-13T05:14:00;17.57;;;8.73;;
15567;SDS011;7885;42.596;23.044;2023-07-13T05:16:27;22.87;;;9.97;;
15567;SDS011;7885;42.596;23.044;2023-07-13T05:18:55;17.80;;;9.27;;
15567;SDS011;7885;42.596;23.044;2023-07-13T05:21:22;18.90;;;9.50;;
15567;SDS011;7885;42.596;23.044;2023-07-13T05:23:49;20.00;;;9.70;;
15567;SDS011;7885;42.596;23.044;2023-07-13T05:26:16;23.23;;;10.77;;
15567;SDS011;7885;42.596;23.044;2023-07-13T05:28:43;19.33;;;9.90;;
15567;SDS011;7885;42.596;23.044;2023-07-13T05:31:10;17.57;;;9.80;;
15567;SDS011;7885;42.596;23.044;2023-07-13T05:33:36;24.17;;;10.03;;
15567;SDS011;7885;42.596;23.044;2023-07-13T05:36:05;26.30;;;10.50;;
15567;SDS011;7885;42.596;23.044;2023-07-13T05:38:32;23.57;;;9.83;;
15567;SDS011;7885;42.596;23.044;2023-07-13T05:40:59;20.57;;;9.87;;
15567;SDS011;7885;42.596;23.044;2023-07-13T05:43:26;19.20;;;10.07;;
15567;SDS011;7885;42.596;23.044;2023-07-13T05:45:53;15.97;;;9.43;;
15567;SDS011;7885;42.596;23.044;2023-07-13T05:48:23;16.53;;;9.17;;
15567;SDS011;7885;42.596;23.044;2023-07-13T05:50:50;13.23;;;8.80;;
15567;SDS011;7885;42.596;23.044;2023-07-13T05:53:18;14.83;;;9.37;;
15567;SDS011;7885;42.596;23.044;2023-07-13T05:55:45;13.87;;;8.23;;
15567;SDS011;7885;42.596;23.044;2023-07-13T05:58:15;19.40;;;9.73;;
15567;SDS011;7885;42.596;23.044;2023-07-13T06:00:42;16.77;;;9.70;;
15567;SDS011;7885;42.596;23.044;2023-07-13T06:03:09;16.87;;;9.20;;
15567;SDS011;7885;42.596;23.044;2023-07-13T06:05:36;13.73;;;9.17;;
15567;SDS011;7885;42.596;23.044;2023-07-13T06:08:04;16.13;;;9.83;;
15567;SDS011;7885;42.596;23.044;2023-07-13T06:10:33;13.83;;;8.60;;
15567;SDS011;7885;42.596;23.044;2023-07-13T06:13:00;13.27;;;9.73;;
15567;SDS011;7885;42.596;23.044;2023-07-13T06:15:28;19.20;;;9.07;;
15567;SDS011;7885;42.596;23.044;2023-07-13T06:17:55;19.37;;;9.60;;
15567;SDS011;7885;42.596;23.044;2023-07-13T06:20:21;15.97;;;9.07;;
15567;SDS011;7885;42.596;23.044;2023-07-13T06:22:49;18.73;;;10.17;;
15567;SDS011;7885;42.596;23.044;2023-07-13T06:25:15;19.83;;;10.00;;
15567;SDS011;7885;42.596;23.044;2023-07-13T06:27:45;17.03;;;9.47;;
15567;SDS011;7885;42.596;23.044;2023-07-13T06:30:11;12.83;;;10.10;;
15567;SDS011;7885;42.596;23.044;2023-07-13T06:32:39;15.77;;;10.07;;
15567;SDS011;7885;42.596;23.044;2023-07-13T06:35:06;18.17;;;9.53;;
15567;SDS011;7885;42.596;23.044;2023-07-13T06:37:33;13.47;;;9.90;;
15567;SDS011;7885;42.596;23.044;2023-07-13T06:39:59;17.17;;;9.40;;
15567;SDS011;7885;42.596;23.044;2023-07-13T06:42:26;15.27;;;9.83;;
15567;SDS011;7885;42.596;23.044;2023-07-13T06:44:55;22.27;;;9.83;;
15567;SDS011;7885;42.596;23.044;2023-07-13T06:47:22;14.30;;;9.40;;
15567;SDS011;7885;42.596;23.044;2023-07-13T06:49:49;11.33;;;9.47;;
15567;SDS011;7885;42.596;23.044;2023-07-13T06:52:16;18.70;;;9.80;;
15567;SDS011;7885;42.596;23.044;2023-07-13T06:54:42;16.33;;;9.83;;
15567;SDS011;7885;42.596;23.044;2023-07-13T06:57:09;14.70;;;8.80;;
15567;SDS011;7885;42.596;23.044;2023-07-13T06:59:36;22.88;;;9.80;;
15567;SDS011;7885;42.596;23.044;2023-07-13T07:02:04;13.88;;;8.80;;
15567;SDS011;7885;42.596;23.044;2023-07-13T07:04:32;15.95;;;9.13;;
15567;SDS011;7885;42.596;23.044;2023-07-13T07:06:59;11.55;;;8.43;;
15567;SDS011;7885;42.596;23.044;2023-07-13T07:09:25;13.95;;;9.35;;
15567;SDS011;7885;42.596;23.044;2023-07-13T07:11:54;15.75;;;9.43;;
15567;SDS011;7885;42.596;23.044;2023-07-13T07:14:21;12.13;;;9.68;;
15567;SDS011;7885;42.596;23.044;2023-07-13T07:16:49;16.38;;;9.77;;
15567;SDS011;7885;42.596;23.044;2023-07-13T07:19:17;15.95;;;9.15;;
15567;SDS011;7885;42.596;23.044;2023-07-13T07:21:44;15.55;;;9.32;;
15567;SDS011;7885;42.596;23.044;2023-07-13T07:24:16;14.60;;;9.65;;
15567;SDS011;7885;42.596;23.044;2023-07-13T07:26:51;13.73;;;9.32;;
15567;SDS011;7885;42.596;23.044;2023-07-13T07:29:17;14.27;;;8.65;;
15567;SDS011;7885;42.596;23.044;2023-07-13T07:31:44;10.80;;;8.82;;
15567;SDS011;7885;42.596;23.044;2023-07-13T07:34:11;11.60;;;9.25;;
15567;SDS011;7885;42.596;23.044;2023-07-13T07:36:39;11.43;;;8.82;;
15567;SDS011;7885;42.596;23.044;2023-07-13T07:39:06;10.90;;;9.02;;
15567;SDS011;7885;42.596;23.044;2023-07-13T07:41:33;11.38;;;9.23;;
15567;SDS011;7885;42.596;23.044;2023-07-13T07:43:59;10.82;;;8.70;;
15567;SDS011;7885;42.596;23.044;2023-07-13T07:46:26;16.17;;;8.57;;
15567;SDS011;7885;42.596;23.044;2023-07-13T07:48:53;11.70;;;8.18;;
15567;SDS011;7885;42.596;23.044;2023-07-13T07:51:20;11.68;;;8.32;;
15567;SDS011;7885;42.596;23.044;2023-07-13T07:53:48;11.27;;;8.23;;
15567;SDS011;7885;42.596;23.044;2023-07-13T07:56:15;8.77;;;7.60;;
15567;SDS011;7885;42.596;23.044;2023-07-13T07:58:42;13.15;;;7.72;;
15567;SDS011;7885;42.596;23.044;2023-07-13T08:01:09;9.00;;;7.15;;
15567;SDS011;7885;42.596;23.044;2023-07-13T08:03:36;7.30;;;6.25;;
15567;SDS011;7885;42.596;23.044;2023-07-13T08:06:03;8.00;;;5.53;;
15567;SDS011;7885;42.596;23.044;2023-07-13T08:08:30;8.10;;;5.70;;
15567;SDS011;7885;42.596;23.044;2023-07-13T08:10:58;8.73;;;6.05;;
15567;SDS011;7885;42.596;23.044;2023-07-13T08:13:29;6.13;;;5.53;;
15567;SDS011;7885;42.596;23.044;2023-07-13T08:15:56;6.13;;;5.53;;
15567;SDS011;7885;42.596;23.044;2023-07-13T08:18:23;5.78;;;5.28;;
15567;SDS011;7885;42.596;23.044;2023-07-13T08:20:50;6.10;;;5.43;;
15567;SDS011;7885;42.596;23.044;2023-07-13T08:23:17;8.57;;;5.13;;
15567;SDS011;7885;42.596;23.044;2023-07-13T08:25:50;6.00;;;5.40;;
15567;SDS011;7885;42.596;23.044;2023-07-13T08:28:19;7.75;;;5.22;;
15567;SDS011;7885;42.596;23.044;2023-07-13T08:30:46;6.32;;;5.25;;
15567;SDS011;7885;42.596;23.044;2023-07-13T08:33:14;6.50;;;5.70;;
15567;SDS011;7885;42.596;23.044;2023-07-13T08:35:40;7.00;;;5.65;;
15567;SDS011;7885;42.596;23.044;2023-07-13T08:38:07;5.78;;;5.18;;
15567;SDS011;7885;42.596;23.044;2023-07-13T08:40:34;5.55;;;5.05;;
15567;SDS011;7885;42.596;23.044;2023-07-13T08:43:01;8.45;;;5.53;;
15567;SDS011;7885;42.596;23.044;2023-07-13T08:45:30;6.88;;;5.15;;
15567;SDS011;7885;42.596;23.044;2023-07-13T08:48:08;5.07;;;4.68;;
15567;SDS011;7885;42.596;23.044;2023-07-13T08:50:39;5.90;;;5.30;;
15567;SDS011;7885;42.596;23.044;2023-07-13T08:53:15;6.57;;;5.30;;
15567;SDS011;7885;42.596;23.044;2023-07-13T08:55:43;7.15;;;5.70;;
15567;SDS011;7885;42.596;23.044;2023-07-13T08:58:10;6.63;;;5.47;;
15567;SDS011;7885;42.596;23.044;2023-07-13T09:00:43;5.72;;;5.15;;
15567;SDS011;7885;42.596;23.044;2023-07-13T09:03:20;6.47;;;5.88;;
15567;SDS011;7885;42.596;23.044;2023-07-13T09:05:52;6.30;;;5.70;;
15567;SDS011;7885;42.596;23.044;2023-07-13T09:08:27;6.30;;;5.18;;
15567;SDS011;7885;42.596;23.044;2023-07-13T09:11:03;6.30;;;5.70;;
15567;SDS011;7885;42.596;23.044;2023-07-13T09:16:28;7.35;;;5.78;;
15567;SDS011;7885;42.596;23.044;2023-07-13T09:18:56;7.15;;;5.60;;
15567;SDS011;7885;42.596;23.044;2023-07-13T09:21:29;11.10;;;6.03;;
15567;SDS011;7885;42.596;23.044;2023-07-13T09:23:59;6.20;;;5.32;;
15567;SDS011;7885;42.596;23.044;2023-07-13T09:26:28;10.73;;;5.85;;
15567;SDS011;7885;42.596;23.044;2023-07-13T09:28:59;10.68;;;5.70;;
15567;SDS011;7885;42.596;23.044;2023-07-13T09:31:39;6.47;;;5.65;;
15567;SDS011;7885;42.596;23.044;2023-07-13T09:34:18;12.15;;;5.82;;
15567;SDS011;7885;42.596;23.044;2023-07-13T09:36:46;7.63;;;5.28;;
15567;SDS011;7885;42.596;23.044;2023-07-13T09:39:24;6.40;;;5.80;;
15567;SDS011;7885;42.596;23.044;2023-07-13T09:41:57;6.53;;;5.55;;
15567;SDS011;7885;42.596;23.044;2023-07-13T09:44:33;6.88;;;5.10;;
15567;SDS011;7885;42.596;23.044;2023-07-13T09:47:03;10.25;;;5.47;;
15567;SDS011;7885;42.596;23.044;2023-07-13T09:49:41;7.47;;;5.10;;
15567;SDS011;7885;42.596;23.044;2023-07-13T09:52:10;8.55;;;5.38;;
15567;SDS011;7885;42.596;23.044;2023-07-13T09:54:39;6.65;;;5.40;;
15567;SDS011;7885;42.596;23.044;2023-07-13T09:57:11;5.90;;;5.30;;
15567;SDS011;7885;42.596;23.044;2023-07-13T09:59:41;6.28;;;5.60;;
15567;SDS011;7885;42.596;23.044;2023-07-13T10:02:25;7.05;;;5.22;;
15567;SDS011;7885;42.596;23.044;2023-07-13T10:04:55;6.07;;;5.47;;
15567;SDS011;7885;42.596;23.044;2023-07-13T10:07:24;6.95;;;5.70;;
15567;SDS011;7885;42.596;23.044;2023-07-13T10:09:51;5.63;;;5.05;;
15567;SDS011;7885;42.596;23.044;2023-07-13T10:12:22;7.22;;;5.60;;
15567;SDS011;7885;42.596;23.044;2023-07-13T10:14:50;6.05;;;5.45;;
15567;SDS011;7885;42.596;23.044;2023-07-13T10:17:26;5.90;;;5.30;;
15567;SDS011;7885;42.596;23.044;2023-07-13T10:19:58;6.63;;;4.95;;
15567;SDS011;7885;42.596;23.044;2023-07-13T10:22:31;8.48;;;4.90;;
15567;SDS011;7885;42.596;23.044;2023-07-13T10:37:57;6.30;;;4.97;;
15567;SDS011;7885;42.596;23.044;2023-07-13T10:40:32;5.43;;;4.93;;
15567;SDS011;7885;42.596;23.044;2023-07-13T10:43:04;5.53;;;5.03;;
15567;SDS011;7885;42.596;23.044;2023-07-13T10:45:35;5.93;;;5.05;;
15567;SDS011;7885;42.596;23.044;2023-07-13T10:48:04;6.38;;;4.68;;
15567;SDS011;7885;42.596;23.044;2023-07-13T10:50:34;5.93;;;4.82;;
15567;SDS011;7885;42.596;23.044;2023-07-13T10:53:17;6.35;;;5.20;;
15567;SDS011;7885;42.596;23.044;2023-07-13T10:55:54;6.47;;;5.22;;
15567;SDS011;7885;42.596;23.044;2023-07-13T10:58:28;6.35;;;5.07;;
15567;SDS011;7885;42.596;23.044;2023-07-13T11:04:20;8.80;;;5.20;;
15567;SDS011;7885;42.596;23.044;2023-07-13T11:06:50;7.78;;;5.93;;
15567;SDS011;7885;42.596;23.044;2023-07-13T11:09:32;8.70;;;5.28;;
15567;SDS011;7885;42.596;23.044;2023-07-13T11:12:05;5.78;;;4.80;;
15567;SDS011;7885;42.596;23.044;2023-07-13T11:14:42;7.20;;;4.60;;
15567;SDS011;7885;42.596;23.044;2023-07-13T11:17:47;6.90;;;4.90;;
15567;SDS011;7885;42.596;23.044;2023-07-13T11:20:22;9.20;;;4.80;;
15567;SDS011;7885;42.596;23.044;2023-07-13T11:25:58;8.38;;;4.90;;
15567;SDS011;7885;42.596;23.044;2023-07-13T11:28:26;6.75;;;4.80;;
15567;SDS011;7885;42.596;23.044;2023-07-13T11:31:12;6.28;;;4.75;;
15567;SDS011;7885;42.596;23.044;2023-07-13T11:33:55;7.10;;;4.65;;
15567;SDS011;7885;42.596;23.044;2023-07-13T11:36:27;7.97;;;4.97;;
15567;SDS011;7885;42.596;23.044;2023-07-13T11:38:59;5.93;;;4.60;;
15567;SDS011;7885;42.596;23.044;2023-07-13T11:41:31;10.13;;;4.88;;
15567;SDS011;7885;42.596;23.044;2023-07-13T11:44:04;8.52;;;5.00;;
15567;SDS011;7885;42.596;23.044;2023-07-13T11:46:33;12.35;;;5.07;;
15567;SDS011;7885;42.596;23.044;2023-07-13T11:49:04;7.53;;;5.15;;
15567;SDS011;7885;42.596;23.044;2023-07-13T11:51:31;8.18;;;4.75;;
15567;SDS011;7885;42.596;23.044;2023-07-13T12:00:44;7.85;;;4.65;;
15567;SDS011;7885;42.596;23.044;2023-07-13T12:03:12;12.10;;;4.75;;
15567;SDS011;7885;42.596;23.044;2023-07-13T12:05:57;9.30;;;4.95;;
15567;SDS011;7885;42.596;23.044;2023-07-13T12:08:27;9.45;;;4.90;;
15567;SDS011;7885;42.596;23.044;2023-07-13T12:11:03;6.13;;;4.32;;
15567;SDS011;7885;42.596;23.044;2023-07-13T12:13:38;9.43;;;4.82;;
15567;SDS011;7885;42.596;23.044;2023-07-13T12:16:10;9.85;;;5.45;;
15567;SDS011;7885;42.596;23.044;2023-07-13T12:18:41;7.38;;;4.80;;
15567;SDS011;7885;42.596;23.044;2023-07-13T12:21:13;8.55;;;4.75;;
15567;SDS011;7885;42.596;23.044;2023-07-13T12:23:44;9.05;;;4.93;;
15567;SDS011;7885;42.596;23.044;2023-07-13T12:26:14;7.80;;;4.90;;
15567;SDS011;7885;42.596;23.044;2023-07-13T12:28:44;6.88;;;4.93;;
15567;SDS011;7885;42.596;23.044;2023-07-13T12:31:24;8.13;;;5.18;;
15567;SDS011;7885;42.596;23.044;2023-07-13T12:33:56;9.13;;;4.93;;
15567;SDS011;7885;42.596;23.044;2023-07-13T12:36:26;7.57;;;5.07;;
15567;SDS011;7885;42.596;23.044;2023-07-13T12:38:56;7.18;;;4.30;;
15567;SDS011;7885;42.596;23.044;2023-07-13T12:41:29;7.68;;;4.50;;
15567;SDS011;7885;42.596;23.044;2023-07-13T12:43:55;8.70;;;4.85;;
15567;SDS011;7885;42.596;23.044;2023-07-13T12:46:23;6.78;;;4.75;;
15567;SDS011;7885;42.596;23.044;2023-07-13T12:48:51;9.32;;;5.25;;
15567;SDS011;7885;42.596;23.044;2023-07-13T13:01:27;7.05;;;5.00;;
15567;SDS011;7885;42.596;23.044;2023-07-13T13:03:55;7.68;;;4.90;;
15567;SDS011;7885;42.596;23.044;2023-07-13T13:06:24;9.32;;;5.18;;
15567;SDS011;7885;42.596;23.044;2023-07-13T13:08:53;7.63;;;4.63;;
15567;SDS011;7885;42.596;23.044;2023-07-13T13:11:23;6.75;;;4.72;;
15567;SDS011;7885;42.596;23.044;2023-07-13T13:13:52;10.32;;;5.50;;
15567;SDS011;7885;42.596;23.044;2023-07-13T13:16:20;7.68;;;4.95;;
15567;SDS011;7885;42.596;23.044;2023-07-13T13:21:44;7.10;;;4.60;;
15567;SDS011;7885;42.596;23.044;2023-07-13T13:24:12;8.73;;;5.00;;
15567;SDS011;7885;42.596;23.044;2023-07-13T13:26:40;6.80;;;4.63;;
15567;SDS011;7885;42.596;23.044;2023-07-13T13:29:14;8.55;;;5.20;;
15567;SDS011;7885;42.596;23.044;2023-07-13T13:31:42;8.32;;;5.18;;
15567;SDS011;7885;42.596;23.044;2023-07-13T13:34:10;14.38;;;5.00;;
15567;SDS011;7885;42.596;23.044;2023-07-13T13:36:40;8.25;;;5.28;;
15567;SDS011;7885;42.596;23.044;2023-07-13T13:39:16;10.90;;;5.32;;
15567;SDS011;7885;42.596;23.044;2023-07-13T13:41:46;7.05;;;5.40;;
15567;SDS011;7885;42.596;23.044;2023-07-13T13:44:14;10.10;;;5.13;;
15567;SDS011;7885;42.596;23.044;2023-07-13T13:46:42;9.25;;;5.47;;
15567;SDS011;7885;42.596;23.044;2023-07-13T13:49:12;7.00;;;5.20;;
15567;SDS011;7885;42.596;23.044;2023-07-13T13:51:43;6.90;;;5.30;;
15567;SDS011;7885;42.596;23.044;2023-07-13T13:54:12;6.75;;;5.30;;
15567;SDS011;7885;42.596;23.044;2023-07-13T13:56:41;9.07;;;5.13;;
15567;SDS011;7885;42.596;23.044;2023-07-13T13:59:09;7.85;;;5.47;;
15567;SDS011;7885;42.596;23.044;2023-07-13T14:01:35;9.70;;;5.50;;
15567;SDS011;7885;42.596;23.044;2023-07-13T14:04:03;11.60;;;5.53;;
15567;SDS011;7885;42.596;23.044;2023-07-13T14:06:31;13.02;;;5.82;;
15567;SDS011;7885;42.596;23.044;2023-07-13T14:09:01;9.55;;;5.13;;
15567;SDS011;7885;42.596;23.044;2023-07-13T14:11:28;6.88;;;4.68;;
15567;SDS011;7885;42.596;23.044;2023-07-13T14:13:58;10.93;;;4.88;;
15567;SDS011;7885;42.596;23.044;2023-07-13T14:16:27;8.90;;;4.78;;
15567;SDS011;7885;42.596;23.044;2023-07-13T14:18:56;8.73;;;4.80;;
15567;SDS011;7885;42.596;23.044;2023-07-13T14:21:25;9.90;;;5.32;;
15567;SDS011;7885;42.596;23.044;2023-07-13T14:23:53;7.00;;;4.70;;
15567;SDS011;7885;42.596;23.044;2023-07-13T14:26:22;8.90;;;5.25;;
15567;SDS011;7885;42.596;23.044;2023-07-13T14:28:52;10.55;;;5.05;;
15567;SDS011;7885;42.596;23.044;2023-07-13T14:31:20;9.57;;;5.53;;
15567;SDS011;7885;42.596;23.044;2023-07-13T14:33:48;8.20;;;5.10;;
15567;SDS011;7885;42.596;23.044;2023-07-13T14:36:21;9.55;;;5.22;;
15567;SDS011;7885;42.596;23.044;2023-07-13T14:38:53;7.13;;;4.97;;
15567;SDS011;7885;42.596;23.044;2023-07-13T14:41:20;6.65;;;5.07;;
15567;SDS011;7885;42.596;23.044;2023-07-13T14:43:48;10.32;;;5.40;;
15567;SDS011;7885;42.596;23.044;2023-07-13T14:46:21;7.88;;;5.53;;
15567;SDS011;7885;42.596;23.044;2023-07-13T14:48:54;9.27;;;5.10;;
15567;SDS011;7885;42.596;23.044;2023-07-13T14:51:27;10.38;;;4.95;;
15567;SDS011;7885;42.596;23.044;2023-07-13T14:53:54;9.70;;;4.97;;
15567;SDS011;7885;42.596;23.044;2023-07-13T14:56:22;7.78;;;4.80;;
15567;SDS011;7885;42.596;23.044;2023-07-13T14:58:49;7.68;;;4.68;;
15567;SDS011;7885;42.596;23.044;2023-07-13T15:01:18;7.95;;;4.90;;
15567;SDS011;7885;42.596;23.044;2023-07-13T15:03:47;9.82;;;5.88;;
15567;SDS011;7885;42.596;23.044;2023-07-13T15:06:17;8.02;;;5.30;;
15567;SDS011;7885;42.596;23.044;2023-07-13T15:08:45;10.65;;;5.03;;
15567;SDS011;7885;42.596;23.044;2023-07-13T15:11:13;7.97;;;5.13;;
15567;SDS011;7885;42.596;23.044;2023-07-13T15:13:42;8.40;;;4.75;;
15567;SDS011;7885;42.596;23.044;2023-07-13T15:16:14;10.70;;;5.10;;
15567;SDS011;7885;42.596;23.044;2023-07-13T15:18:43;9.75;;;5.13;;
15567;SDS011;7885;42.596;23.044;2023-07-13T15:21:13;8.57;;;5.00;;
15567;SDS011;7885;42.596;23.044;2023-07-13T15:23:44;9.77;;;5.38;;
15567;SDS011;7885;42.596;23.044;2023-07-13T15:26:11;12.35;;;5.55;;
15567;SDS011;7885;42.596;23.044;2023-07-13T15:28:41;5.93;;;4.70;;
15567;SDS011;7885;42.596;23.044;2023-07-13T15:31:16;9.93;;;4.80;;
15567;SDS011;7885;42.596;23.044;2023-07-13T15:33:45;9.35;;;5.05;;
15567;SDS011;7885;42.596;23.044;2023-07-13T15:36:14;6.82;;;5.00;;
15567;SDS011;7885;42.596;23.044;2023-07-13T15:38:42;6.72;;;5.10;;
15567;SDS011;7885;42.596;23.044;2023-07-13T15:41:13;7.10;;;4.93;;
15567;SDS011;7885;42.596;23.044;2023-07-13T15:43:45;8.63;;;5.30;;